Time;durP1;ratioP1;P1;durP2;ratioP2;P2;SDS_P1;SDS_P2;PMS_P1;PMS_P2;Temp;Humidity;BMP_temperature;BMP_pressure;BME280_temperature;BME280_humidity;BME280_pressure;Samples;Min_cycle;Max_cycle;Signal;HPM_P1;HPM_P2
2023/01/06 00:01:05;;;;;;;;;;;;;;;12.41;45.38;98828.13;5055514;28;19917;-74
2023/01/06 00:03:30;;;;;;;;;;;;;;;12.43;44.94;98821.81;5037655;28;19927;-75
2023/01/06 00:05:58;;;;;;;;;;;;;;;12.45;44.69;98824.31;5037779;28;19920;-74
2023/01/06 00:08:23;;;;;;;;;;;;;;;12.48;44.93;98821.44;5037363;28;19916;-74
2023/01/06 00:10:49;;;;;;;;;;;;;;;12.51;44.67;98831.66;5037405;28;20007;-78
2023/01/06 00:13:14;;;;;;;;;;;;;;;12.54;44.42;98827.94;5037835;28;19948;-74
2023/01/06 00:15:39;;;;;;;;;;;;;;;12.57;44.63;98838.16;5020578;28;19960;-74
2023/01/06 00:18:04;;;;;;;;;;;;;;;12.59;44.58;98837.09;5055125;28;19917;-74
2023/01/06 00:20:30;;;;;;;;;;;;;;;12.63;44.16;98846.34;5037268;28;19917;-74
2023/01/06 00:22:55;;;;;;;;;;;;;;;12.66;44.24;98853.09;5055089;28;19917;-74
2023/01/06 00:25:20;;;;;;;;;;;;;;;12.68;44.17;98856.41;5054939;28;19921;-74
2023/01/06 00:27:46;;;;;;;;;;;;;;;12.70;43.70;98851.91;5054480;28;19924;-74
2023/01/06 00:30:11;;;;;;;;;;;;;;;12.74;43.68;98855.09;5037310;28;19917;-74
2023/01/06 00:32:36;;;;;;;;;;;;;;;12.76;43.77;98859.25;5037140;28;19939;-74
2023/01/06 00:35:02;;;;;;;;;;;;;;;12.78;43.58;98853.88;5054826;28;19917;-74
2023/01/06 00:37:27;;;;;;;;;;;;;;;12.80;43.23;98842.31;5020410;28;19952;-75
2023/01/06 00:39:52;;;;;;;;;;;;;;;12.82;42.76;98844.78;5054576;28;20004;-74
2023/01/06 00:42:18;;;;;;;;;;;;;;;12.83;42.61;98833.38;5054677;28;20011;-75
2023/01/06 00:44:43;;;;;;;;;;;;;;;12.83;42.34;98841.22;5036845;28;20264;-74
2023/01/06 00:47:09;;;;;;;;;;;;;;;12.84;41.96;98833.25;5054222;28;19917;-74
2023/01/06 00:49:34;;;;;;;;;;;;;;;12.86;42.11;98827.88;5036925;28;20295;-75
2023/01/06 00:51:59;;;;;;;;;;;;;;;12.88;42.19;98823.31;5020478;28;19986;-75
2023/01/06 00:54:25;;;;;;;;;;;;;;;12.89;42.20;98827.63;5036879;28;19966;-75
2023/01/06 00:56:50;;;;;;;;;;;;;;;12.90;41.83;98823.19;5054397;28;19929;-75
2023/01/06 00:59:16;;;;;;;;;;;;;;;12.91;42.13;98824.88;5036620;28;20019;-75
2023/01/06 01:01:42;;;;;;;;;;;;;;;12.93;41.88;98829.00;5019772;28;19917;-75
2023/01/06 01:04:07;;;;;;;;;;;;;;;12.94;41.75;98827.22;5035911;28;19917;-75
2023/01/06 01:06:33;;;;;;;;;;;;;;;12.96;41.53;98823.50;5034782;28;19940;-75
2023/01/06 01:08:58;;;;;;;;;;;;;;;12.96;41.55;98822.69;5000178;28;19971;-75
2023/01/06 01:14:08;;;;;;;;;;;;;;;13.01;41.76;98817.88;5034460;28;19924;-75
2023/01/06 01:16:33;;;;;;;;;;;;;;;13.01;41.69;98815.25;5016675;28;19918;-75
2023/01/06 01:18:58;;;;;;;;;;;;;;;13.04;41.55;98815.00;5016206;28;19925;-75
2023/01/06 01:21:23;;;;;;;;;;;;;;;13.03;41.53;98806.31;5034301;28;19917;-75
2023/01/06 01:23:49;;;;;;;;;;;;;;;13.06;41.42;98810.44;5034253;28;20026;-76
2023/01/06 01:26:14;;;;;;;;;;;;;;;13.07;41.33;98812.09;5000274;28;19917;-75
2023/01/06 01:28:39;;;;;;;;;;;;;;;13.09;41.61;98812.78;5034032;28;19956;-75
2023/01/06 01:31:05;;;;;;;;;;;;;;;13.10;41.25;98811.03;5033857;28;19921;-75
2023/01/06 01:33:30;;;;;;;;;;;;;;;13.11;41.51;98805.66;4999990;28;20323;-75
2023/01/06 01:35:55;;;;;;;;;;;;;;;13.12;41.60;98809.91;4999701;28;19917;-76
2023/01/06 01:38:21;;;;;;;;;;;;;;;13.13;41.58;98808.16;5016748;28;19936;-74
2023/01/06 01:40:47;;;;;;;;;;;;;;;13.14;41.61;98799.31;5012587;28;20328;-74
2023/01/06 01:43:12;;;;;;;;;;;;;;;13.12;41.34;98783.72;5012715;28;20396;-74
2023/01/06 01:45:40;;;;;;;;;;;;;;;13.12;41.25;98778.47;5013138;28;19918;-75
2023/01/06 01:48:06;;;;;;;;;;;;;;;13.12;41.25;98775.03;5013091;28;19921;-74
2023/01/06 01:50:33;;;;;;;;;;;;;;;13.13;41.37;98785.38;5013942;28;19996;-74
2023/01/06 01:53:06;;;;;;;;;;;;;;;13.14;41.20;98805.41;5012972;28;20008;-75
2023/01/06 01:55:31;;;;;;;;;;;;;;;13.15;41.23;98803.59;5012880;28;20453;-74
2023/01/06 01:58:16;;;;;;;;;;;;;;;13.15;41.35;98811.47;5012349;28;19918;-74
2023/01/06 02:00:42;;;;;;;;;;;;;;;13.13;41.10;98811.59;4996850;28;19917;-74
2023/01/06 02:03:07;;;;;;;;;;;;;;;13.12;41.25;98802.06;5012149;28;20363;-74
2023/01/06 02:05:33;;;;;;;;;;;;;;;13.13;41.45;98802.91;4995989;28;19918;-74
2023/01/06 02:07:59;;;;;;;;;;;;;;;13.12;41.51;98793.38;5012538;28;19918;-73
2023/01/06 02:10:25;;;;;;;;;;;;;;;13.09;41.58;98794.44;5012246;28;19917;-74
2023/01/06 02:12:53;;;;;;;;;;;;;;;13.10;41.08;98804.00;5012652;28;20335;-74
2023/01/06 02:15:21;;;;;;;;;;;;;;;13.08;41.32;98808.53;5012208;28;19941;-77
2023/01/06 02:18:05;;;;;;;;;;;;;;;13.05;41.06;98811.41;4995895;28;20447;-74
2023/01/06 02:21:06;;;;;;;;;;;;;;;13.05;41.26;98797.50;5013361;28;19922;-74
2023/01/06 02:23:52;;;;;;;;;;;;;;;13.03;41.31;98802.88;4972624;28;19991;-73
2023/01/06 02:26:36;;;;;;;;;;;;;;;13.01;41.60;98810.00;4940031;28;19919;-73
2023/01/06 02:29:20;;;;;;;;;;;;;;;12.98;41.34;98798.03;4972371;28;20314;-73
2023/01/06 02:31:45;;;;;;;;;;;;;;;12.97;41.56;98803.38;4972068;28;19918;-73
2023/01/06 02:34:16;;;;;;;;;;;;;;;12.97;41.65;98811.25;4955894;28;19945;-73
2023/01/06 02:37:00;;;;;;;;;;;;;;;12.96;41.63;98804.34;4972062;28;19926;-72
2023/01/06 02:39:34;;;;;;;;;;;;;;;12.95;41.84;98810.53;4971961;28;19929;-74
2023/01/06 02:42:01;;;;;;;;;;;;;;;12.93;41.62;98822.94;4971726;28;19922;-73
2023/01/06 02:44:40;;;;;;;;;;;;;;;12.93;41.83;98815.06;4955933;28;20029;-73
2023/01/06 02:47:09;;;;;;;;;;;;;;;12.92;41.91;98821.28;4971855;28;20017;-74
2023/01/06 02:49:47;;;;;;;;;;;;;;;12.89;41.81;98819.75;4955673;28;20004;-74
2023/01/06 02:52:13;;;;;;;;;;;;;;;12.86;41.81;98830.50;4971898;28;19989;-74
2023/01/06 02:54:40;;;;;;;;;;;;;;;12.82;41.65;98823.84;4939568;28;19918;-74
2023/01/06 02:57:12;;;;;;;;;;;;;;;12.79;42.03;98829.34;4972625;28;19917;-74
2023/01/06 02:59:38;;;;;;;;;;;;;;;12.76;41.85;98832.22;5012922;28;20312;-75
2023/01/06 03:02:04;;;;;;;;;;;;;;;12.74;42.12;98831.50;5011585;28;19917;-74
2023/01/06 03:04:30;;;;;;;;;;;;;;;12.69;42.08;98825.84;5011799;28;19917;-74
2023/01/06 03:06:56;;;;;;;;;;;;;;;12.65;42.10;98820.84;5011426;28;19939;-73
2023/01/06 03:09:22;;;;;;;;;;;;;;;12.60;42.33;98823.03;5010708;28;20393;-73
2023/01/06 03:11:49;;;;;;;;;;;;;;;12.55;42.60;98821.75;5011611;28;19918;-73
2023/01/06 03:14:22;;;;;;;;;;;;;;;12.50;42.49;98822.13;4995432;28;19960;-73
2023/01/06 03:16:47;;;;;;;;;;;;;;;12.46;42.58;98820.72;5011992;28;19922;-74
2023/01/06 03:19:13;;;;;;;;;;;;;;;12.42;42.70;98830.59;4994902;28;19918;-75
2023/01/06 03:21:39;;;;;;;;;;;;;;;12.37;43.09;98832.78;4994589;28;19918;-75
2023/01/06 03:24:04;;;;;;;;;;;;;;;12.33;43.08;98836.59;4994883;28;19917;-76
2023/01/06 03:26:30;;;;;;;;;;;;;;;12.30;43.05;98844.69;5011547;28;19917;-76
2023/01/06 03:28:55;;;;;;;;;;;;;;;12.27;43.15;98856.28;5011371;28;19921;-75
2023/01/06 03:31:20;;;;;;;;;;;;;;;12.23;43.46;98854.03;4994780;28;19922;-75
2023/01/06 03:34:04;;;;;;;;;;;;;;;12.20;43.68;98854.28;5012594;28;19917;-74
2023/01/06 03:36:30;;;;;;;;;;;;;;;12.16;43.67;98856.31;5012337;28;19917;-74
2023/01/06 03:38:58;;;;;;;;;;;;;;;12.13;43.89;98856.56;5015059;28;19924;-75
2023/01/06 03:43:10;;;;;;;;;;;;;;;12.10;43.79;98851.56;5014376;28;19963;-76
2023/01/06 03:44:12;;;;;;;;;;;;;;;12.08;43.92;98851.69;5032179;28;20371;-76
2023/01/06 03:46:39;;;;;;;;;;;;;;;12.06;43.86;98855.38;4998161;28;20359;-75
2023/01/06 03:49:37;;;;;;;;;;;;;;;12.04;43.77;98855.50;5014785;28;20386;-75
2023/01/06 03:52:04;;;;;;;;;;;;;;;12.02;43.87;98865.28;4971313;28;20322;-75
2023/01/06 03:54:40;;;;;;;;;;;;;;;12.01;43.64;98857.53;4939176;28;19918;-75
2023/01/06 03:57:10;;;;;;;;;;;;;;;12.00;43.66;98856.72;4938917;28;19918;-76
2023/01/06 03:59:37;;;;;;;;;;;;;;;12.00;43.76;98861.97;4939046;28;19918;-75
2023/01/06 04:02:04;;;;;;;;;;;;;;;11.99;43.58;98855.06;4955005;28;19918;-76
2023/01/06 04:04:29;;;;;;;;;;;;;;;11.98;43.72;98848.16;4938967;28;19925;-74
2023/01/06 04:06:55;;;;;;;;;;;;;;;11.97;43.50;98864.81;4939065;28;19918;-75
2023/01/06 04:09:20;;;;;;;;;;;;;;;11.97;43.45;98864.81;4971211;28;20070;-74
2023/01/06 04:14:29;;;;;;;;;;;;;;;11.97;43.19;98877.91;4971108;28;19964;-74
2023/01/06 04:16:55;;;;;;;;;;;;;;;11.98;43.19;98879.53;4955435;28;19949;-74
2023/01/06 04:19:20;;;;;;;;;;;;;;;11.97;42.79;98883.13;4955017;28;20330;-74
2023/01/06 04:21:45;;;;;;;;;;;;;;;11.98;42.88;98897.03;4973465;28;20404;-74
2023/01/06 04:24:11;;;;;;;;;;;;;;;11.99;42.63;98907.38;4958162;28;19922;-74
2023/01/06 04:26:36;;;;;;;;;;;;;;;11.98;42.58;98907.50;4963714;28;19946;-73
2023/01/06 04:29:01;;;;;;;;;;;;;;;11.98;42.56;98910.13;5017518;28;20380;-74
2023/01/06 04:31:27;;;;;;;;;;;;;;;11.98;42.18;98933.66;5017190;28;19953;-75
2023/01/06 04:33:52;;;;;;;;;;;;;;;11.99;42.37;98927.47;5035091;28;19943;-76
2023/01/06 04:36:19;;;;;;;;;;;;;;;11.97;42.08;98935.44;5034839;28;19917;-74
2023/01/06 04:38:44;;;;;;;;;;;;;;;11.99;42.35;98922.25;5000809;28;19924;-77
2023/01/06 04:41:09;;;;;;;;;;;;;;;12.00;41.98;98929.97;5017680;28;19921;-74
2023/01/06 04:43:35;;;;;;;;;;;;;;;11.99;42.25;98928.31;5034788;28;20300;-74
2023/01/06 04:46:00;;;;;;;;;;;;;;;12.03;45.75;98939.34;5034590;28;19928;-76
2023/01/06 04:48:25;;;;;;;;;;;;;;;12.07;46.93;98938.16;5017356;28;19965;-75
2023/01/06 04:51:00;;;;;;;;;;;;;;;12.08;46.28;98950.28;5034301;28;19921;-73
2023/01/06 04:53:26;;;;;;;;;;;;;;;12.08;45.48;98952.88;5017193;28;19921;-71
2023/01/06 04:55:51;;;;;;;;;;;;;;;12.06;45.16;98965.28;5017471;28;19924;-73
2023/01/06 04:58:16;;;;;;;;;;;;;;;12.07;44.60;98970.38;5017298;28;19916;-74
2023/01/06 05:00:41;;;;;;;;;;;;;;;12.04;44.32;98968.00;5016377;28;20299;-76
2023/01/06 05:03:07;;;;;;;;;;;;;;;12.11;48.62;98974.44;5022207;28;19917;-75
2023/01/06 05:05:32;;;;;;;;;;;;;;;12.26;48.58;98976.78;5007355;28;19925;-75
2023/01/06 05:07:57;;;;;;;;;;;;;;;12.31;47.79;98987.72;5017637;28;20368;-73
2023/01/06 05:10:23;;;;;;;;;;;;;;;12.34;51.01;98992.72;5034915;28;19924;-76
2023/01/06 05:12:48;;;;;;;;;;;;;;;12.30;49.46;98999.13;5016754;28;19917;-73
2023/01/06 05:15:13;;;;;;;;;;;;;;;12.25;48.50;99003.91;5034034;28;19925;-73
2023/01/06 05:17:39;;;;;;;;;;;;;;;12.22;47.70;98996.28;5034392;28;19917;-73
2023/01/06 05:20:04;;;;;;;;;;;;;;;12.20;47.41;98990.38;5000005;28;19917;-73
2023/01/06 05:22:29;;;;;;;;;;;;;;;12.18;46.57;98987.03;5034468;28;19917;-73
2023/01/06 05:24:55;;;;;;;;;;;;;;;12.15;46.02;98979.44;5016756;28;19917;-73
2023/01/06 05:27:20;;;;;;;;;;;;;;;12.15;45.47;98977.63;5016941;28;19921;-75
2023/01/06 05:29:45;;;;;;;;;;;;;;;12.14;44.76;98978.59;5016628;28;19917;-73
2023/01/06 05:32:10;;;;;;;;;;;;;;;12.13;44.86;98974.31;4999245;28;19921;-72
2023/01/06 05:34:36;;;;;;;;;;;;;;;12.13;44.07;98983.00;5016305;28;19924;-72
2023/01/06 05:37:01;;;;;;;;;;;;;;;12.14;43.94;98986.44;5016510;28;19964;-74
2023/01/06 05:39:26;;;;;;;;;;;;;;;12.13;43.87;98987.41;5016497;28;19978;-73
2023/01/06 05:41:52;;;;;;;;;;;;;;;12.13;43.62;98990.84;4999916;28;19986;-75
2023/01/06 05:44:17;;;;;;;;;;;;;;;12.12;43.07;98997.03;5016417;28;20008;-76
2023/01/06 05:46:42;;;;;;;;;;;;;;;12.13;42.80;99003.94;5016263;28;20386;-74
2023/01/06 05:49:08;;;;;;;;;;;;;;;12.15;42.84;99003.81;4999825;28;19917;-73
2023/01/06 05:51:33;;;;;;;;;;;;;;;12.16;42.59;99007.25;5016243;28;20335;-76
2023/01/06 05:53:58;;;;;;;;;;;;;;;12.18;42.43;99007.97;5015975;28;19917;-72
2023/01/06 05:56:23;;;;;;;;;;;;;;;12.20;42.40;99019.16;5016359;28;19923;-72
2023/01/06 05:58:50;;;;;;;;;;;;;;;12.39;42.10;99019.34;4998840;28;20351;-73
2023/01/06 06:01:22;;;;;;;;;;;;;;;12.66;40.92;99024.16;5014177;28;19917;-73
2023/01/06 06:03:48;;;;;;;;;;;;;;;13.00;40.37;99034.53;5015859;28;19917;-73
2023/01/06 06:06:13;;;;;;;;;;;;;;;13.32;40.04;99040.72;5016075;28;19924;-73
2023/01/06 06:08:39;;;;;;;;;;;;;;;13.70;39.58;99040.16;5016397;28;20039;-74
2023/01/06 06:11:05;;;;;;;;;;;;;;;14.15;38.57;99030.28;5033881;28;20402;-73
2023/01/06 06:13:30;;;;;;;;;;;;;;;14.71;37.47;99034.22;5015800;28;19917;-73
2023/01/06 06:16:09;;;;;;;;;;;;;;;15.33;36.56;99032.94;5015743;28;19917;-74
2023/01/06 06:18:35;;;;;;;;;;;;;;;16.14;34.76;99031.66;4999293;28;20361;-74
2023/01/06 06:21:03;;;;;;;;;;;;;;;16.98;32.65;99025.34;5033419;28;19924;-73
2023/01/06 06:23:29;;;;;;;;;;;;;;;17.92;31.10;99035.44;5016101;28;19917;-74
2023/01/06 06:25:54;;;;;;;;;;;;;;;18.86;29.47;99034.47;5015716;28;19917;-75
2023/01/06 06:28:19;;;;;;;;;;;;;;;19.84;27.74;99038.09;5033309;28;20361;-74
2023/01/06 06:30:45;;;;;;;;;;;;;;;20.71;26.36;99043.38;5033238;28;20514;-74
2023/01/06 06:33:10;;;;;;;;;;;;;;;21.50;24.67;99045.00;5033052;28;19921;-73
2023/01/06 06:35:35;;;;;;;;;;;;;;;22.26;23.57;99052.81;5033153;28;19917;-74
2023/01/06 06:38:01;;;;;;;;;;;;;;;22.85;23.00;99056.41;5015490;28;20392;-74
2023/01/06 06:40:26;;;;;;;;;;;;;;;23.30;22.11;99049.09;5015303;28;19925;-73
2023/01/06 06:42:51;;;;;;;;;;;;;;;23.57;21.63;99050.13;5032996;28;20399;-73
2023/01/06 06:45:17;;;;;;;;;;;;;;;23.66;21.34;99054.28;5032951;28;20276;-74
2023/01/06 06:47:42;;;;;;;;;;;;;;;23.62;21.68;99063.69;5015332;28;20394;-73
2023/01/06 06:50:09;;;;;;;;;;;;;;;23.58;21.83;99066.94;4998922;28;19924;-74
2023/01/06 06:52:34;;;;;;;;;;;;;;;23.49;21.76;99063.59;5032845;28;19921;-74
2023/01/06 06:54:59;;;;;;;;;;;;;;;23.51;22.02;99063.41;5015639;28;20273;-74
2023/01/06 06:57:25;;;;;;;;;;;;;;;23.57;22.06;99067.94;5032936;28;20466;-75
2023/01/06 06:59:50;;;;;;;;;;;;;;;23.65;21.84;99076.63;5015250;28;19947;-74
2023/01/06 07:02:15;;;;;;;;;;;;;;;23.80;21.31;99071.19;5032626;28;19917;-73
2023/01/06 07:04:40;;;;;;;;;;;;;;;23.83;21.53;99086.84;5032731;28;19917;-73
2023/01/06 07:07:06;;;;;;;;;;;;;;;23.97;21.41;99087.75;5014672;28;20479;-73
2023/01/06 07:09:31;;;;;;;;;;;;;;;24.08;21.59;99097.03;5015048;28;19917;-73
2023/01/06 07:11:56;;;;;;;;;;;;;;;24.15;21.57;99092.56;5032621;28;19921;-74
2023/01/06 07:14:22;;;;;;;;;;;;;;;24.20;21.40;99084.78;5015179;28;20312;-73
2023/01/06 07:16:47;;;;;;;;;;;;;;;24.23;21.55;99085.41;5014655;28;19987;-73
2023/01/06 07:19:12;;;;;;;;;;;;;;;24.40;21.29;99100.09;5014995;28;19917;-73
2023/01/06 07:21:38;;;;;;;;;;;;;;;24.52;21.09;99113.69;5014874;28;20373;-73
2023/01/06 07:24:03;;;;;;;;;;;;;;;24.68;21.15;99104.53;5014841;28;20380;-73
2023/01/06 07:26:28;;;;;;;;;;;;;;;24.98;21.00;99106.91;5014821;28;19917;-72
2023/01/06 07:28:53;;;;;;;;;;;;;;;25.26;20.69;99098.75;5015107;28;19921;-72
2023/01/06 07:31:19;;;;;;;;;;;;;;;25.57;20.42;99108.88;5032242;28;19917;-74
2023/01/06 07:33:44;;;;;;;;;;;;;;;25.75;19.96;99115.44;4998162;28;19921;-73
2023/01/06 07:36:09;;;;;;;;;;;;;;;25.95;19.71;99120.75;5032508;28;19922;-73
2023/01/06 07:38:35;;;;;;;;;;;;;;;26.13;19.48;99118.28;5014399;28;19921;-73
2023/01/06 07:41:00;;;;;;;;;;;;;;;26.42;19.26;99123.38;5032216;28;20028;-74
2023/01/06 07:43:25;;;;;;;;;;;;;;;26.54;18.93;99129.72;5014804;28;19994;-75
2023/01/06 07:45:50;;;;;;;;;;;;;;;26.64;18.96;99129.25;5014360;28;20454;-73
2023/01/06 07:48:16;;;;;;;;;;;;;;;26.80;18.60;99139.50;5032267;28;20300;-74
2023/01/06 07:50:41;;;;;;;;;;;;;;;26.96;18.79;99148.09;5032608;28;19924;-75
2023/01/06 07:53:07;;;;;;;;;;;;;;;27.02;17.86;99144.56;5032425;28;19917;-73
2023/01/06 07:55:32;;;;;;;;;;;;;;;27.17;18.01;99142.44;5016076;28;19917;-74
2023/01/06 07:57:58;;;;;;;;;;;;;;;27.18;18.31;99146.72;5018384;28;19921;-77
2023/01/06 08:00:23;;;;;;;;;;;;;;;27.15;17.84;99141.84;5036091;28;20030;-75
2023/01/06 08:02:48;;;;;;;;;;;;;;;27.20;18.34;99139.31;5035962;28;19959;-73
2023/01/06 08:05:13;;;;;;;;;;;;;;;27.17;18.30;99149.66;5018554;28;20012;-73
2023/01/06 08:07:39;;;;;;;;;;;;;;;27.19;18.61;99153.75;5035937;28;19956;-72
2023/01/06 08:10:04;;;;;;;;;;;;;;;27.26;18.28;99157.22;5035863;28;19940;-73
2023/01/06 08:12:30;;;;;;;;;;;;;;;27.34;18.62;99160.69;5035786;28;20388;-73
2023/01/06 08:14:55;;;;;;;;;;;;;;;27.48;18.51;99164.13;5036206;28;19917;-73
2023/01/06 08:17:20;;;;;;;;;;;;;;;27.66;18.47;99166.03;5035446;28;20007;-73
2023/01/06 08:19:46;;;;;;;;;;;;;;;27.72;18.19;99157.13;5018042;28;19913;-75
2023/01/06 08:22:11;;;;;;;;;;;;;;;27.87;17.85;99160.31;5018165;28;19921;-74
2023/01/06 08:24:36;;;;;;;;;;;;;;;27.97;17.92;99166.03;5035453;28;19917;-73
2023/01/06 08:27:01;;;;;;;;;;;;;;;28.13;18.23;99171.88;5035730;28;19924;-73
2023/01/06 08:29:27;;;;;;;;;;;;;;;28.27;18.05;99172.56;5035918;28;19917;-73
2023/01/06 08:31:52;;;;;;;;;;;;;;;28.49;17.23;99154.16;5017797;28;19917;-74
2023/01/06 08:34:18;;;;;;;;;;;;;;;28.65;16.82;99158.94;5001408;28;19917;-74
2023/01/06 08:36:43;;;;;;;;;;;;;;;28.77;16.43;99160.91;5035251;28;19924;-74
2023/01/06 08:39:09;;;;;;;;;;;;;;;28.80;16.48;99168.50;5035259;28;19921;-73
2023/01/06 08:41:34;;;;;;;;;;;;;;;28.84;15.89;99167.84;5035145;28;19927;-73
2023/01/06 08:43:59;;;;;;;;;;;;;;;28.77;15.11;99169.75;5035269;28;20004;-73
2023/01/06 08:46:25;;;;;;;;;;;;;;;28.77;15.10;99163.59;5035176;28;20373;-74
2023/01/06 08:48:50;;;;;;;;;;;;;;;28.81;15.07;99162.06;5035095;28;19917;-73
2023/01/06 08:51:17;;;;;;;;;;;;;;;28.73;15.23;99165.06;5017480;28;19917;-73
2023/01/06 08:53:46;;;;;;;;;;;;;;;28.77;15.29;99153.66;5017373;28;19917;-75
2023/01/06 08:56:15;;;;;;;;;;;;;;;28.86;15.36;99154.97;5017657;28;20015;-73
2023/01/06 08:58:40;;;;;;;;;;;;;;;29.00;15.83;99163.69;5034938;28;19924;-75
2023/01/06 09:01:06;;;;;;;;;;;;;;;29.12;15.71;99165.59;5034709;28;19917;-73
2023/01/06 09:03:31;;;;;;;;;;;;;;;29.26;15.81;99156.34;5017345;28;19918;-74
2023/01/06 09:05:56;;;;;;;;;;;;;;;29.27;15.45;99149.91;5000369;28;19924;-74
2023/01/06 09:08:22;;;;;;;;;;;;;;;29.26;15.81;99140.22;5017008;28;19917;-73
2023/01/06 09:10:47;;;;;;;;;;;;;;;29.39;15.33;99153.44;5034500;28;20464;-74
2023/01/06 09:13:13;;;;;;;;;;;;;;;29.53;15.33;99154.06;5000654;28;19971;-73
2023/01/06 09:15:39;;;;;;;;;;;;;;;29.68;15.53;99155.47;5034589;28;19964;-74
2023/01/06 09:18:04;;;;;;;;;;;;;;;29.84;15.38;99157.53;5000487;28;19967;-73
2023/01/06 09:20:30;;;;;;;;;;;;;;;30.07;15.41;99163.97;5016588;28;20003;-75
2023/01/06 09:22:55;;;;;;;;;;;;;;;30.17;15.14;99153.41;5017190;28;20369;-74
2023/01/06 09:25:21;;;;;;;;;;;;;;;30.37;14.20;99150.38;5034521;28;19921;-74
2023/01/06 09:27:46;;;;;;;;;;;;;;;30.53;14.14;99151.53;5016614;28;19917;-73
2023/01/06 09:30:12;;;;;;;;;;;;;;;30.67;14.11;99152.09;5034308;28;20009;-74
2023/01/06 09:32:37;;;;;;;;;;;;;;;30.84;13.94;99142.19;5016936;28;19917;-72
2023/01/06 09:35:03;;;;;;;;;;;;;;;30.95;13.98;99140.50;5034232;28;19918;-76
2023/01/06 09:37:28;;;;;;;;;;;;;;;31.14;13.96;99143.84;5016845;28;19924;-75
2023/01/06 09:39:53;;;;;;;;;;;;;;;31.36;13.59;99148.56;5016165;28;19928;-73
2023/01/06 09:42:19;;;;;;;;;;;;;;;31.64;13.30;99144.19;5034049;28;19921;-73
2023/01/06 09:44:46;;;;;;;;;;;;;;;32.35;12.77;99139.03;5033928;28;19921;-74
2023/01/06 09:47:12;;;;;;;;;;;;;;;33.51;11.65;99130.81;5016386;28;20296;-74
2023/01/06 09:49:41;;;;;;;;;;;;;;;34.61;11.15;99124.75;5034336;28;19974;-73
2023/01/06 09:52:15;;;;;;;;;;;;;;;35.74;10.58;99124.13;5016476;28;19960;-75
2023/01/06 09:55:00;;;;;;;;;;;;;;;36.80;9.51;99136.03;5016308;28;19917;-73
2023/01/06 09:57:40;;;;;;;;;;;;;;;37.59;9.42;99127.88;5033140;28;19925;-72
2023/01/06 10:00:25;;;;;;;;;;;;;;;38.32;9.05;99126.88;5016123;28;19924;-73
2023/01/06 10:02:51;;;;;;;;;;;;;;;38.82;8.69;99120.25;5005551;28;20418;-73
2023/01/06 10:05:16;;;;;;;;;;;;;;;39.17;8.64;99107.19;5016145;28;19947;-73
2023/01/06 10:07:46;;;;;;;;;;;;;;;39.23;8.04;99101.34;5033604;28;19917;-73
2023/01/06 10:10:40;;;;;;;;;;;;;;;39.10;7.96;99109.50;5016097;28;19972;-72
2023/01/06 10:13:06;;;;;;;;;;;;;;;39.40;7.73;99111.72;4956503;28;20054;-74
2023/01/06 10:15:40;;;;;;;;;;;;;;;39.42;7.73;99092.31;4955852;28;20216;-74
2023/01/06 10:18:23;;;;;;;;;;;;;;;39.16;7.45;99061.91;4956044;28;20286;-74
2023/01/06 10:21:09;;;;;;;;;;;;;;;38.82;7.98;99099.22;4972577;28;20010;-73
2023/01/06 10:23:41;;;;;;;;;;;;;;;38.33;8.62;99095.81;4956362;28;20344;-74
2023/01/06 10:26:13;;;;;;;;;;;;;;;37.76;8.69;99105.69;4956012;28;19919;-74
2023/01/06 10:28:41;;;;;;;;;;;;;;;37.14;9.21;99100.72;4956355;28;19972;-74
2023/01/06 10:31:16;;;;;;;;;;;;;;;36.35;9.62;99103.34;4940690;28;19925;-72
2023/01/06 10:34:01;;;;;;;;;;;;;;;35.74;10.20;99107.81;4940499;28;19922;-73
2023/01/06 10:36:30;;;;;;;;;;;;;;;35.09;10.55;99105.63;4972008;28;19969;-73
2023/01/06 10:38:56;;;;;;;;;;;;;;;34.61;11.27;99108.47;4939712;28;19922;-75
2023/01/06 10:41:23;;;;;;;;;;;;;;;34.23;10.97;99090.72;4956591;28;19932;-74
2023/01/06 10:43:49;;;;;;;;;;;;;;;33.77;10.71;99082.34;4939627;28;20068;-75
2023/01/06 10:46:14;;;;;;;;;;;;;;;33.43;11.63;99090.72;4956023;28;19922;-74
2023/01/06 10:48:39;;;;;;;;;;;;;;;33.17;11.68;99091.31;4965688;28;19917;-73
2023/01/06 10:51:28;;;;;;;;;;;;;;;32.86;11.94;99084.78;5015067;28;19917;-73
2023/01/06 10:53:55;;;;;;;;;;;;;;;32.40;12.26;99079.69;4972314;28;19977;-73
2023/01/06 10:56:20;;;;;;;;;;;;;;;31.35;12.68;99085.69;4956345;28;19918;-74
2023/01/06 10:58:49;;;;;;;;;;;;;;;31.03;13.41;99082.75;4939797;28;20009;-74
2023/01/06 11:01:15;;;;;;;;;;;;;;;30.46;13.23;99083.53;4955763;28;19929;-73
2023/01/06 11:03:44;;;;;;;;;;;;;;;30.40;13.59;99079.09;4939391;28;20017;-73
2023/01/06 11:06:27;;;;;;;;;;;;;;;30.26;13.64;99081.19;4956422;28;19988;-77
2023/01/06 11:08:53;;;;;;;;;;;;;;;30.17;13.93;99088.00;4955922;28;19926;-74
2023/01/06 11:11:18;;;;;;;;;;;;;;;30.06;13.74;99077.03;4939640;28;19919;-75
2023/01/06 11:13:51;;;;;;;;;;;;;;;29.92;14.04;99070.22;4955900;28;19918;-75
2023/01/06 11:16:21;;;;;;;;;;;;;;;29.82;14.01;99067.34;4939719;28;19918;-73
2023/01/06 11:18:50;;;;;;;;;;;;;;;29.69;13.95;99062.97;4939244;28;19919;-73
2023/01/06 11:21:15;;;;;;;;;;;;;;;29.57;14.13;99066.50;4955626;28;20005;-73
2023/01/06 11:23:41;;;;;;;;;;;;;;;29.40;14.01;99058.28;4956092;28;20421;-73
2023/01/06 11:26:09;;;;;;;;;;;;;;;29.28;14.22;99070.09;4955615;28;19918;-73
2023/01/06 11:28:34;;;;;;;;;;;;;;;29.06;14.17;99059.81;4971734;28;19925;-73
2023/01/06 11:31:04;;;;;;;;;;;;;;;28.86;14.52;99066.31;5006891;28;19917;-73
2023/01/06 11:33:30;;;;;;;;;;;;;;;28.69;14.62;99055.38;5037317;28;19983;-73
2023/01/06 11:35:55;;;;;;;;;;;;;;;28.49;14.96;99058.31;5036487;28;19924;-73
2023/01/06 11:38:20;;;;;;;;;;;;;;;28.28;15.00;99064.97;5019105;28;19929;-73
2023/01/06 11:40:46;;;;;;;;;;;;;;;28.08;15.45;99049.09;5036493;28;19948;-73
2023/01/06 11:43:13;;;;;;;;;;;;;;;27.88;14.98;99043.09;5018663;28;19963;-73
2023/01/06 11:45:38;;;;;;;;;;;;;;;27.66;15.42;99048.88;5002164;28;20022;-73
2023/01/06 11:48:05;;;;;;;;;;;;;;;27.43;15.31;99068.25;5018631;28;20396;-74
2023/01/06 11:50:30;;;;;;;;;;;;;;;27.18;15.42;99062.84;5036651;28;19940;-73
2023/01/06 11:52:59;;;;;;;;;;;;;;;26.95;15.59;99064.25;5018727;28;20368;-74
2023/01/06 11:55:26;;;;;;;;;;;;;;;26.70;15.59;99051.63;5018486;28;19917;-76
2023/01/06 11:57:51;;;;;;;;;;;;;;;26.28;15.84;99055.69;5018619;28;19975;-73
2023/01/06 12:00:32;;;;;;;;;;;;;;;26.12;16.11;99047.09;5035727;28;19917;-76
2023/01/06 12:03:09;;;;;;;;;;;;;;;25.95;16.03;99056.56;5018425;28;19918;-76
2023/01/06 12:05:42;;;;;;;;;;;;;;;25.63;16.66;99059.94;5035914;28;20319;-73
2023/01/06 12:08:10;;;;;;;;;;;;;;;25.43;16.73;99059.94;5035871;28;19991;-74
2023/01/06 12:10:35;;;;;;;;;;;;;;;25.30;17.11;99064.44;5018009;28;19921;-75
2023/01/06 12:13:01;;;;;;;;;;;;;;;25.10;16.84;99062.56;5018461;28;20016;-77
2023/01/06 12:15:26;;;;;;;;;;;;;;;24.81;17.24;99058.38;5018342;28;19942;-73
2023/01/06 12:18:00;;;;;;;;;;;;;;;24.67;17.22;99058.34;5018072;28;19917;-73
2023/01/06 12:20:32;;;;;;;;;;;;;;;24.52;17.37;99052.31;5035335;28;20288;-73
2023/01/06 12:22:57;;;;;;;;;;;;;;;24.34;17.57;99069.69;5017703;28;19923;-73
2023/01/06 12:25:34;;;;;;;;;;;;;;;24.12;17.71;99068.16;5035585;28;20012;-73
2023/01/06 12:28:01;;;;;;;;;;;;;;;23.79;18.09;99061.53;5017812;28;19917;-75
2023/01/06 12:30:32;;;;;;;;;;;;;;;23.65;18.46;99067.81;5018068;28;19961;-73
2023/01/06 12:33:00;;;;;;;;;;;;;;;23.38;18.63;99069.44;5035425;28;19917;-75
2023/01/06 12:35:25;;;;;;;;;;;;;;;23.21;18.70;99071.53;5035514;28;19967;-73
2023/01/06 12:38:02;;;;;;;;;;;;;;;22.97;18.94;99068.19;5017599;28;20417;-74
2023/01/06 12:40:34;;;;;;;;;;;;;;;22.74;19.20;99066.53;5017475;28;20385;-75
2023/01/06 12:42:59;;;;;;;;;;;;;;;22.55;19.37;99069.78;5017223;28;19918;-74
2023/01/06 12:45:24;;;;;;;;;;;;;;;22.45;19.79;99077.25;5035325;28;19967;-72
2023/01/06 12:47:51;;;;;;;;;;;;;;;22.29;19.63;99070.25;5035212;28;19917;-73
2023/01/06 12:50:19;;;;;;;;;;;;;;;22.12;19.85;99049.16;5017542;28;19917;-75
2023/01/06 12:52:47;;;;;;;;;;;;;;;22.02;19.96;99053.94;5035479;28;19967;-76
2023/01/06 12:55:18;;;;;;;;;;;;;;;21.97;20.12;99056.34;5017620;28;19924;-76